Terminal Aerodrome Forecast
Issued by NWS

Home | Current Version | Previous Version | Text Only | Print | Product List | Glossary On
Versions: 1 2 3 4 5 6 7 8 9 10 11 12 13 14 15 16 17 18
160
FTUS43 KDVN 201926 AAA
TAFBRL
TAF AMD
KBRL 201926Z 2019/2118 04008KT P6SM VCSH OVC025
      TEMPO 2019/2022 5SM -RA BR BKN015 OVC030
     FM202200 03006KT P6SM OVC030
     FM210000 01006KT P6SM OVC035
     FM210800 30004KT P6SM BKN050
     FM211500 29008KT P6SM SCT100=

USA.gov is the U.S. government's official web portal to all federal, state and local government web resources and services.